Time;durP1;ratioP1;P1;durP2;ratioP2;P2;SDS_P1;SDS_P2;PMS_P1;PMS_P2;Temp;Humidity;BMP_temperature;BMP_pressure;BME280_temperature;BME280_humidity;BME280_pressure;Samples;Min_cycle;Max_cycle;Signal;HPM_P1;HPM_P2
2021/12/14 00:02:05;;;;;;;2.90;1.40;;;20.40;58.80;;;;;;5035509;28;20559;-60
2021/12/14 00:04:33;;;;;;;2.65;1.02;;;20.50;58.90;;;;;;5035512;28;20069;-60
2021/12/14 00:07:00;;;;;;;3.87;1.70;;;20.40;58.80;;;;;;5034880;28;20045;-61
2021/12/14 00:09:30;;;;;;;2.67;1.27;;;20.40;58.80;;;;;;5035989;28;20300;-61
2021/12/14 00:17:20;;;;;;;3.83;1.30;;;20.40;58.70;;;;;;5035694;28;20053;-60
2021/12/14 00:19:46;;;;;;;2.58;1.40;;;20.40;58.70;;;;;;5035323;28;20041;-61
2021/12/14 00:22:34;;;;;;;2.42;1.17;;;20.40;58.70;;;;;;5034928;28;20164;-61
2021/12/14 00:25:00;;;;;;;3.92;0.90;;;20.30;58.60;;;;;;5034680;28;20098;-61
2021/12/14 00:27:27;;;;;;;3.05;1.00;;;20.40;58.70;;;;;;5035561;28;20050;-60
2021/12/14 00:29:57;;;;;;;2.35;1.27;;;20.30;58.50;;;;;;5034114;28;20068;-60
2021/12/14 00:32:25;;;;;;;4.00;1.08;;;20.30;58.60;;;;;;5035471;28;20041;-61
2021/12/14 00:34:52;;;;;;;1.93;1.00;;;20.30;58.60;;;;;;5034103;28;20038;-60
2021/12/14 00:37:23;;;;;;;2.30;1.02;;;20.30;58.60;;;;;;5035290;28;20413;-60
2021/12/14 00:39:49;;;;;;;2.28;1.17;;;20.30;58.60;;;;;;5035183;28;20037;-62
2021/12/14 00:42:15;;;;;;;2.45;1.20;;;20.30;58.60;;;;;;5034536;28;20057;-60
2021/12/14 00:44:40;;;;;;;1.65;1.00;;;20.30;58.60;;;;;;5034826;28;20049;-61
2021/12/14 00:47:06;;;;;;;3.42;1.35;;;20.30;58.50;;;;;;5034967;28;20126;-60
2021/12/14 00:49:32;;;;;;;2.38;1.00;;;20.30;58.50;;;;;;5034324;28;20124;-60
2021/12/14 00:51:57;;;;;;;2.28;1.10;;;20.30;58.50;;;;;;5034472;28;20068;-61
2021/12/14 00:54:23;;;;;;;4.03;1.30;;;20.30;58.50;;;;;;5035038;28;20038;-60
2021/12/14 00:56:49;;;;;;;3.08;1.38;;;20.30;58.50;;;;;;5033524;28;20057;-61
2021/12/14 00:59:15;;;;;;;2.70;1.23;;;20.20;58.40;;;;;;5034972;28;20486;-61
2021/12/14 01:01:50;;;;;;;4.55;1.30;;;20.20;58.40;;;;;;5034840;28;20549;-61
2021/12/14 01:04:22;;;;;;;2.63;1.20;;;20.20;58.30;;;;;;5034125;28;20103;-61
2021/12/14 01:06:48;;;;;;;2.45;1.17;;;20.20;58.30;;;;;;5034521;28;20053;-61
2021/12/14 01:09:18;;;;;;;3.60;1.20;;;20.20;58.30;;;;;;5034912;28;20107;-60
2021/12/14 01:11:45;;;;;;;3.63;1.50;;;20.30;58.40;;;;;;5033643;28;20052;-61
2021/12/14 01:14:29;;;;;;;1.92;0.80;;;20.20;58.30;;;;;;5034653;28;20055;-61
2021/12/14 01:17:09;;;;;;;2.88;1.15;;;20.20;58.30;;;;;;5033404;28;20041;-61
2021/12/14 01:19:37;;;;;;;3.13;1.20;;;20.20;58.30;;;;;;5034398;28;20481;-61
2021/12/14 01:22:31;;;;;;;1.95;1.00;;;20.20;58.20;;;;;;5033951;28;20128;-60
2021/12/14 01:25:07;;;;;;;2.88;1.17;;;20.20;58.20;;;;;;5033266;28;20405;-61
2021/12/14 01:27:46;;;;;;;2.83;1.27;;;20.20;58.20;;;;;;5034347;28;20103;-61
2021/12/14 01:30:17;;;;;;;2.83;1.38;;;20.20;58.10;;;;;;5032828;28;20053;-61
2021/12/14 01:32:45;;;;;;;2.95;1.30;;;20.20;58.10;;;;;;5033327;28;20041;-61
2021/12/14 01:35:13;;;;;;;2.22;1.30;;;20.10;58.10;;;;;;5033465;28;20049;-60
2021/12/14 01:37:45;;;;;;;;;;;20.20;58.10;;;;;;5034209;28;20478;-61
2021/12/14 01:40:19;;;;;;;2.15;0.98;;;20.10;58.00;;;;;;5033369;28;20365;-61
2021/12/14 01:42:44;;;;;;;2.03;1.00;;;20.10;58.20;;;;;;5033838;28;20054;-60
2021/12/14 01:45:19;;;;;;;2.55;1.10;;;20.10;58.10;;;;;;5031737;28;20095;-60
2021/12/14 01:47:50;;;;;;;2.58;1.00;;;20.10;58.10;;;;;;5033531;28;20048;-60
2021/12/14 01:50:28;;;;;;;3.65;1.33;;;20.10;58.00;;;;;;5033901;28;20053;-61
2021/12/14 01:52:55;;;;;;;2.13;1.25;;;20.10;58.00;;;;;;5032779;28;20041;-60
2021/12/14 01:55:24;;;;;;;2.10;1.17;;;20.00;58.00;;;;;;5033613;28;20107;-61
2021/12/14 01:57:50;;;;;;;2.70;1.35;;;20.10;58.00;;;;;;5033270;28;20386;-60
2021/12/14 02:00:22;;;;;;;2.38;0.98;;;20.10;57.90;;;;;;5031454;28;20103;-61
2021/12/14 02:02:48;;;;;;;3.15;1.40;;;20.10;57.90;;;;;;5033474;28;20092;-61
2021/12/14 02:05:34;;;;;;;2.00;1.08;;;20.00;57.90;;;;;;5033582;28;20043;-61
2021/12/14 02:08:00;;;;;;;2.10;1.20;;;20.10;57.90;;;;;;5031227;28;20124;-60
2021/12/14 02:10:32;;;;;;;2.22;1.05;;;20.00;57.90;;;;;;5033752;28;20060;-60
2021/12/14 02:12:57;;;;;;;2.00;1.02;;;20.00;57.80;;;;;;5033272;28;20053;-60
2021/12/14 02:15:28;;;;;;;2.90;1.40;;;20.00;57.80;;;;;;5032605;28;20037;-61
2021/12/14 02:17:55;;;;;;;2.58;1.10;;;20.00;57.80;;;;;;5033144;28;20516;-60
2021/12/14 02:20:24;;;;;;;3.08;1.23;;;20.00;57.80;;;;;;5032172;28;20045;-60
2021/12/14 02:22:50;;;;;;;2.78;1.30;;;20.00;57.70;;;;;;5033106;28;20052;-60
2021/12/14 02:25:16;;;;;;;2.90;1.27;;;20.00;57.80;;;;;;5031898;28;20041;-61
2021/12/14 02:27:44;;;;;;;2.70;1.20;;;20.00;57.80;;;;;;5032350;28;20054;-61
2021/12/14 02:30:14;;;;;;;2.13;1.08;;;20.00;57.70;;;;;;5032115;28;20053;-61
2021/12/14 02:32:40;;;;;;;1.50;1.00;;;20.00;57.70;;;;;;5033057;28;20056;-61
2021/12/14 02:35:10;;;;;;;2.35;1.13;;;20.00;57.70;;;;;;5032329;28;20050;-61
2021/12/14 02:37:44;;;;;;;1.35;0.82;;;19.90;57.60;;;;;;5033207;28;20041;-60
2021/12/14 02:40:54;;;;;;;3.50;1.35;;;20.00;57.70;;;;;;5032932;28;20064;-61
2021/12/14 02:43:25;;;;;;;2.10;1.13;;;20.00;57.70;;;;;;5031737;28;20128;-60
2021/12/14 02:45:51;;;;;;;2.80;1.10;;;19.90;57.60;;;;;;5032762;28;20088;-61
2021/12/14 02:48:17;;;;;;;2.72;1.20;;;19.90;57.70;;;;;;5032480;28;20052;-61
2021/12/14 02:50:44;;;;;;;2.20;1.00;;;20.00;57.70;;;;;;5032182;28;20041;-60
2021/12/14 02:53:11;;;;;;;2.38;1.00;;;20.00;57.70;;;;;;5033066;28;20063;-61
2021/12/14 02:55:36;;;;;;;3.55;1.17;;;20.00;57.70;;;;;;5031393;28;20387;-60
2021/12/14 02:58:05;;;;;;;2.47;1.10;;;20.00;57.70;;;;;;5032581;28;20063;-60
2021/12/14 03:00:37;;;;;;;1.58;0.82;;;20.00;57.70;;;;;;5032101;28;20164;-61
2021/12/14 03:03:04;;;;;;;2.33;1.35;;;20.00;57.60;;;;;;5031856;28;20045;-61
2021/12/14 03:05:33;;;;;;;2.75;1.10;;;20.00;57.70;;;;;;5031987;28;20069;-61
2021/12/14 03:08:28;;;;;;;2.65;1.20;;;20.00;57.70;;;;;;5032290;28;20071;-61
2021/12/14 03:11:00;;;;;;;1.60;1.00;;;20.00;57.60;;;;;;5026223;28;20115;-60
2021/12/14 03:13:32;;;;;;;1.92;1.00;;;20.00;57.70;;;;;;5032775;28;20047;-61
2021/12/14 03:15:59;;;;;;;1.45;0.90;;;20.00;57.60;;;;;;5032362;28;20048;-61
2021/12/14 03:18:31;;;;;;;2.10;1.10;;;20.00;57.60;;;;;;5030569;28;20048;-61
2021/12/14 03:21:11;;;;;;;2.20;1.20;;;20.00;57.60;;;;;;5030960;28;20057;-61
2021/12/14 03:23:43;;;;;;;2.42;1.10;;;20.00;57.50;;;;;;5030543;28;20045;-61
2021/12/14 03:26:13;;;;;;;1.85;0.90;;;20.10;57.50;;;;;;5031641;28;20049;-61
2021/12/14 03:28:39;;;;;;;1.95;1.00;;;20.10;57.50;;;;;;5032469;28;20053;-61
2021/12/14 03:31:10;;;;;;;2.50;1.20;;;20.10;57.60;;;;;;5031297;28;20072;-61
2021/12/14 03:33:40;;;;;;;2.33;1.10;;;20.10;57.60;;;;;;5032427;28;20094;-61
2021/12/14 03:36:13;;;;;;;2.85;1.33;;;20.10;57.50;;;;;;5032289;28;20042;-61
2021/12/14 03:38:42;;;;;;;2.25;1.20;;;20.10;57.60;;;;;;5030284;28;20084;-61
2021/12/14 03:41:18;;;;;;;;;;;20.10;57.60;;;;;;5033302;28;20092;-61
2021/12/14 03:43:50;;;;;;;2.55;1.17;;;20.10;57.50;;;;;;5031894;28;19928;-61
2021/12/14 03:46:16;;;;;;;1.80;1.02;;;20.10;57.60;;;;;;5031749;28;20199;-61
2021/12/14 03:48:42;;;;;;;2.47;1.15;;;20.10;57.60;;;;;;5032186;28;20049;-61
2021/12/14 03:51:07;;;;;;;2.72;1.25;;;20.10;57.50;;;;;;5032091;28;20049;-61
2021/12/14 03:53:33;;;;;;;1.80;1.00;;;20.10;57.50;;;;;;5031755;28;20049;-61
2021/12/14 03:56:01;;;;;;;2.35;1.10;;;20.20;57.60;;;;;;5031523;28;20069;-60
2021/12/14 03:58:30;;;;;;;3.50;1.67;;;20.20;57.50;;;;;;5032259;28;20053;-61
2021/12/14 04:00:59;;;;;;;2.15;1.20;;;20.20;57.50;;;;;;5035057;28;20127;-61
2021/12/14 04:03:25;;;;;;;1.95;1.00;;;20.20;57.50;;;;;;5035996;28;20045;-61
2021/12/14 04:05:51;;;;;;;2.13;1.00;;;20.20;57.50;;;;;;5034665;28;20477;-61
2021/12/14 04:08:17;;;;;;;3.13;1.15;;;20.20;57.50;;;;;;5035745;28;20048;-61
2021/12/14 04:10:44;;;;;;;2.70;1.15;;;20.20;57.40;;;;;;5034999;28;20444;-61
2021/12/14 04:13:15;;;;;;;2.58;1.20;;;20.20;57.50;;;;;;5034915;28;20398;-61
2021/12/14 04:15:41;;;;;;;3.13;1.60;;;20.20;57.50;;;;;;5035519;28;20073;-61
2021/12/14 04:18:07;;;;;;;2.45;1.25;;;20.20;57.50;;;;;;5035851;28;20095;-61
2021/12/14 04:20:35;;;;;;;1.63;0.90;;;20.20;57.40;;;;;;5034534;28;20405;-61
2021/12/14 04:23:01;;;;;;;2.40;1.30;;;20.20;57.40;;;;;;5035403;28;20375;-61
2021/12/14 04:25:30;;;;;;;2.88;1.20;;;20.20;57.40;;;;;;5035388;28;20049;-61
2021/12/14 04:27:56;;;;;;;2.70;1.40;;;20.20;57.40;;;;;;5034580;28;20080;-61
2021/12/14 04:30:22;;;;;;;3.08;1.10;;;20.20;57.50;;;;;;5035097;28;20046;-61
2021/12/14 04:32:49;;;;;;;2.35;1.25;;;20.20;57.40;;;;;;5035250;28;20095;-61
2021/12/14 04:35:15;;;;;;;2.88;1.27;;;20.20;57.40;;;;;;5033179;28;20499;-61
2021/12/14 04:37:42;;;;;;;2.92;1.30;;;20.30;57.40;;;;;;5035125;28;20128;-61
2021/12/14 04:40:35;;;;;;;2.67;1.20;;;20.20;57.40;;;;;;5035040;28;20504;-60
2021/12/14 04:54:09;;;;;;;4.43;1.23;;;20.20;57.20;;;;;;5035138;28;20049;-60
2021/12/14 04:56:38;;;;;;;3.03;1.60;;;20.30;57.20;;;;;;5033425;28;20053;-61
2021/12/14 04:59:14;;;;;;;2.97;1.58;;;20.30;57.30;;;;;;5034477;28;20470;-61
2021/12/14 05:01:43;;;;;;;3.17;1.30;;;20.30;57.20;;;;;;5034070;28;20049;-60
2021/12/14 05:04:10;;;;;;;2.78;1.30;;;20.30;57.30;;;;;;5034010;28;20124;-61
2021/12/14 05:06:47;;;;;;;2.47;1.50;;;20.30;57.20;;;;;;5032949;28;20049;-61
2021/12/14 05:09:21;;;;;;;1.88;1.27;;;20.30;57.20;;;;;;5034059;28;20049;-61
2021/12/14 05:11:48;;;;;;;2.38;1.25;;;20.30;57.20;;;;;;5034242;28;20108;-60
2021/12/14 05:14:13;;;;;;;2.53;1.40;;;20.30;57.20;;;;;;5033502;28;20044;-61
2021/12/14 05:16:39;;;;;;;2.72;1.40;;;20.30;57.20;;;;;;5033408;28;20049;-61
2021/12/14 05:19:06;;;;;;;2.25;1.23;;;20.30;57.20;;;;;;5034390;28;20030;-60
2021/12/14 05:21:37;;;;;;;3.38;1.42;;;20.40;57.20;;;;;;5034161;28;20112;-61
2021/12/14 05:24:04;;;;;;;2.80;1.40;;;20.30;57.20;;;;;;5033388;28;20045;-61
2021/12/14 05:26:30;;;;;;;2.58;1.48;;;20.30;57.20;;;;;;5034400;28;20049;-61
2021/12/14 05:28:55;;;;;;;2.22;1.35;;;20.30;57.10;;;;;;5034236;28;20129;-60
2021/12/14 05:31:21;;;;;;;2.95;1.40;;;20.30;57.20;;;;;;5033606;28;20120;-61
2021/12/14 05:33:47;;;;;;;2.72;1.38;;;20.30;57.20;;;;;;5034096;28;20448;-61
2021/12/14 05:36:15;;;;;;;2.33;1.13;;;20.30;57.20;;;;;;5033642;28;20045;-61
2021/12/14 05:38:54;;;;;;;2.78;1.27;;;20.30;57.20;;;;;;5032913;28;20478;-61
2021/12/14 05:44:19;;;;;;;1.77;1.38;;;20.30;57.10;;;;;;5032859;28;20084;-61
2021/12/14 05:46:50;;;;;;;3.17;1.60;;;20.30;57.10;;;;;;5033871;28;20051;-61
2021/12/14 05:49:18;;;;;;;2.35;1.23;;;20.30;57.10;;;;;;5034171;28;20037;-61
2021/12/14 05:51:44;;;;;;;;;;;20.30;57.10;;;;;;5033347;28;20056;-61
2021/12/14 05:54:09;;;;;;;3.03;1.30;;;20.30;57.10;;;;;;5033967;28;19921;-61
2021/12/14 05:56:35;;;;;;;2.55;1.40;;;20.30;57.10;;;;;;5033519;28;20103;-61
2021/12/14 05:59:02;;;;;;;2.97;1.60;;;20.40;57.20;;;;;;5032678;28;20085;-61
2021/12/14 06:01:30;;;;;;;3.50;1.60;;;20.40;57.10;;;;;;5033818;28;20045;-61
2021/12/14 06:04:00;;;;;;;2.42;1.55;;;20.40;57.10;;;;;;5033294;28;20053;-60
2021/12/14 06:06:35;;;;;;;2.55;1.40;;;20.40;57.10;;;;;;5031656;28;20046;-61
2021/12/14 06:09:10;;;;;;;2.92;1.48;;;20.40;57.10;;;;;;5033213;28;20096;-61
2021/12/14 06:11:36;;;;;;;3.25;1.80;;;20.40;57.10;;;;;;5033281;28;20505;-61
2021/12/14 06:14:02;;;;;;;2.47;1.50;;;20.40;57.10;;;;;;5032556;28;20049;-61
2021/12/14 06:16:32;;;;;;;2.88;1.33;;;20.40;57.10;;;;;;5033430;28;20060;-61
2021/12/14 06:19:14;;;;;;;2.65;1.48;;;20.40;57.10;;;;;;5031660;28;20045;-61
2021/12/14 06:21:40;;;;;;;2.25;1.40;;;20.40;57.10;;;;;;5031885;28;20046;-61
2021/12/14 06:24:06;;;;;;;2.47;1.48;;;20.40;57.00;;;;;;5032982;28;20045;-61
2021/12/14 06:26:34;;;;;;;2.08;1.40;;;20.40;57.00;;;;;;5032600;28;20056;-61
2021/12/14 06:29:05;;;;;;;2.87;1.60;;;20.40;57.00;;;;;;5032860;28;20532;-61
2021/12/14 06:31:30;;;;;;;3.38;1.58;;;20.40;57.00;;;;;;5032932;28;20648;-61
2021/12/14 06:33:55;;;;;;;3.13;1.60;;;20.40;57.00;;;;;;5030909;28;20042;-61
2021/12/14 06:36:51;;;;;;;2.47;1.50;;;20.40;57.00;;;;;;5031732;28;20092;-61
2021/12/14 06:39:17;;;;;;;2.55;1.60;;;20.40;56.90;;;;;;5033190;28;20159;-61
2021/12/14 06:41:43;;;;;;;2.53;1.55;;;20.40;57.00;;;;;;5014160;28;20112;-60
2021/12/14 06:44:08;;;;;;;2.45;1.38;;;20.40;57.00;;;;;;5033195;28;20044;-61
2021/12/14 06:46:36;;;;;;;2.42;1.45;;;20.40;57.00;;;;;;5032908;28;20096;-61
2021/12/14 06:49:05;;;;;;;2.70;1.37;;;20.40;57.00;;;;;;5031599;28;20413;-61
2021/12/14 06:51:45;;;;;;;2.65;1.60;;;20.40;57.00;;;;;;5032640;28;20420;-61
2021/12/14 06:54:18;;;;;;;3.40;1.67;;;20.50;57.00;;;;;;5032969;28;20046;-61
2021/12/14 06:56:47;;;;;;;2.10;1.77;;;20.50;56.90;;;;;;5031415;28;20060;-61
2021/12/14 06:59:14;;;;;;;2.38;1.33;;;20.50;57.00;;;;;;5032870;28;20050;-61
2021/12/14 07:01:39;;;;;;;2.60;1.42;;;20.50;56.90;;;;;;5031847;28;20050;-61
2021/12/14 07:04:07;;;;;;;2.50;1.60;;;20.50;57.00;;;;;;5032568;28;20044;-61
2021/12/14 07:06:36;;;;;;;3.30;1.73;;;20.50;56.90;;;;;;5032598;28;20049;-61
2021/12/14 07:09:08;;;;;;;3.72;1.70;;;20.50;56.90;;;;;;5031730;28;20391;-60
2021/12/14 07:11:33;;;;;;;2.67;1.80;;;20.50;56.90;;;;;;5032493;28;20133;-60
2021/12/14 07:13:59;;;;;;;2.55;1.80;;;20.50;56.90;;;;;;5030912;28;20069;-60
2021/12/14 07:16:31;;;;;;;4.47;2.08;;;20.50;56.90;;;;;;5031834;28;20053;-61
2021/12/14 07:19:01;;;;;;;3.33;1.92;;;20.50;56.90;;;;;;5032377;28;20080;-60
2021/12/14 07:21:34;;;;;;;2.92;1.95;;;20.50;56.90;;;;;;5032324;28;20077;-61
2021/12/14 07:24:20;;;;;;;3.92;2.00;;;20.50;56.80;;;;;;5030253;28;20037;-61
2021/12/14 07:26:46;;;;;;;3.45;2.28;;;20.50;56.80;;;;;;5021950;28;20042;-61
2021/12/14 07:29:11;;;;;;;4.15;2.10;;;20.60;56.90;;;;;;5032560;28;20401;-62
2021/12/14 07:31:41;;;;;;;4.07;2.25;;;20.60;56.80;;;;;;5031889;28;20486;-62
2021/12/14 07:34:06;;;;;;;4.10;2.05;;;20.60;56.90;;;;;;5034746;28;20413;-62
2021/12/14 07:36:34;;;;;;;4.53;2.30;;;20.60;56.90;;;;;;5034977;28;20503;-62
2021/12/14 07:39:01;;;;;;;3.90;2.20;;;20.60;56.90;;;;;;5035465;28;20116;-62
2021/12/14 07:41:32;;;;;;;3.75;2.25;;;20.60;56.90;;;;;;5036363;28;20096;-61
2021/12/14 07:44:12;;;;;;;5.85;2.30;;;20.60;57.00;;;;;;5035283;28;20060;-61
2021/12/14 07:46:57;;;;;;;5.55;2.55;;;20.60;57.30;;;;;;5034733;28;20060;-61
2021/12/14 07:49:33;;;;;;;6.00;2.33;;;20.70;57.50;;;;;;5035714;28;20481;-61
2021/12/14 07:52:10;;;;;;;4.80;2.47;;;20.70;57.70;;;;;;5035293;28;20042;-61
2021/12/14 07:54:43;;;;;;;6.45;2.50;;;20.70;57.80;;;;;;5035954;28;20045;-60
2021/12/14 07:57:09;;;;;;;6.50;3.45;;;20.70;57.90;;;;;;5035665;28;20084;-61
2021/12/14 07:59:38;;;;;;;6.63;3.10;;;20.70;58.00;;;;;;5035428;28;20069;-60
2021/12/14 08:02:08;;;;;;;6.25;2.78;;;20.70;58.00;;;;;;5034205;28;20045;-60
2021/12/14 08:04:34;;;;;;;5.10;2.63;;;20.70;58.10;;;;;;5037995;28;20500;-61
2021/12/14 08:07:00;;;;;;;5.10;2.67;;;20.70;58.10;;;;;;5048865;28;20045;-61
2021/12/14 08:09:47;;;;;;;5.32;3.00;;;20.80;58.30;;;;;;5055749;28;20055;-61
2021/12/14 08:12:37;;;;;;;4.20;2.83;;;20.80;58.40;;;;;;5054678;28;20067;-61
2021/12/14 08:15:12;;;;;;;5.60;2.63;;;20.80;58.50;;;;;;5055354;28;20037;-62
2021/12/14 08:17:38;;;;;;;4.28;2.85;;;20.80;58.50;;;;;;5055574;28;20055;-61
2021/12/14 08:20:10;;;;;;;4.35;2.83;;;20.80;58.40;;;;;;5054110;28;20488;-61
2021/12/14 08:22:38;;;;;;;9.60;2.92;;;20.80;58.50;;;;;;5055268;28;20052;-60
2021/12/14 08:25:08;;;;;;;4.47;2.80;;;20.80;58.40;;;;;;5054927;28;20112;-61
2021/12/14 08:27:33;;;;;;;6.28;2.90;;;20.80;58.50;;;;;;5053395;28;20048;-61
2021/12/14 08:30:01;;;;;;;4.57;2.90;;;20.80;58.50;;;;;;5054795;28;20041;-61
2021/12/14 08:32:31;;;;;;;5.55;3.15;;;20.90;59.30;;;;;;5055239;28;20057;-61
2021/12/14 08:34:59;;;;;;;4.30;2.80;;;20.90;58.70;;;;;;5052751;28;20045;-61
2021/12/14 08:37:37;;;;;;;5.63;3.08;;;20.90;58.70;;;;;;5053420;28;20048;-61
2021/12/14 08:40:10;;;;;;;5.47;3.13;;;20.90;58.60;;;;;;5053910;28;20041;-61
2021/12/14 08:42:44;;;;;;;5.32;3.33;;;20.90;58.60;;;;;;5055186;28;20049;-61
2021/12/14 08:45:25;;;;;;;4.85;2.90;;;20.90;58.70;;;;;;5054629;28;20041;-62
2021/12/14 08:47:52;;;;;;;9.45;3.88;;;20.90;58.70;;;;;;5054024;28;20047;-61
2021/12/14 08:50:17;;;;;;;6.03;3.42;;;20.90;58.90;;;;;;5054659;28;20052;-61
2021/12/14 08:52:43;;;;;;;5.47;3.30;;;20.90;58.90;;;;;;5054466;28;20047;-60
2021/12/14 08:55:11;;;;;;;5.13;3.40;;;20.90;58.80;;;;;;5054069;28;20052;-61
2021/12/14 08:57:37;;;;;;;;;;;21.00;58.90;;;;;;5054934;28;20084;-61
2021/12/14 09:00:13;;;;;;;5.13;3.92;;;21.00;58.80;;;;;;5054545;28;20288;-61
2021/12/14 09:02:40;;;;;;;6.10;3.63;;;20.90;58.80;;;;;;5054099;28;20120;-60
2021/12/14 09:05:22;;;;;;;4.20;3.20;;;21.00;58.90;;;;;;5054532;28;20043;-60
2021/12/14 09:07:47;;;;;;;7.30;3.90;;;21.00;59.00;;;;;;5054344;28;20049;-60
2021/12/14 09:10:17;;;;;;;4.93;3.75;;;21.00;58.90;;;;;;5053664;28;20041;-61
2021/12/14 09:12:44;;;;;;;8.00;3.72;;;21.00;59.00;;;;;;5053664;28;20086;-61
2021/12/14 09:15:15;;;;;;;7.18;3.40;;;21.00;59.00;;;;;;5053175;28;20060;-60
2021/12/14 09:17:41;;;;;;;6.30;3.63;;;21.00;59.00;;;;;;5052715;28;20049;-58
2021/12/14 09:20:47;;;;;;;6.38;4.15;;;21.00;59.10;;;;;;5054246;28;20041;-59
2021/12/14 09:23:19;;;;;;;6.47;4.30;;;21.00;58.90;;;;;;5044435;28;20057;-59
2021/12/14 09:25:45;;;;;;;6.13;4.35;;;21.00;58.80;;;;;;5054156;28;20127;-60
2021/12/14 09:28:11;;;;;;;6.53;4.47;;;21.00;58.70;;;;;;5052626;28;20503;-60
2021/12/14 09:30:42;;;;;;;6.55;4.20;;;21.00;58.70;;;;;;5053417;28;20045;-61
2021/12/14 09:33:08;;;;;;;8.45;4.53;;;21.00;58.60;;;;;;5053995;28;20119;-60
2021/12/14 09:35:35;;;;;;;6.72;4.20;;;21.00;59.20;;;;;;5054023;28;20469;-60
2021/12/14 09:38:00;;;;;;;5.25;3.90;;;21.00;58.50;;;;;;5052975;28;20332;-60
2021/12/14 09:40:42;;;;;;;9.57;4.43;;;21.00;58.50;;;;;;5054056;28;20123;-60
2021/12/14 09:43:08;;;;;;;5.82;4.15;;;21.00;58.40;;;;;;5054125;28;20057;-60
2021/12/14 09:45:39;;;;;;;5.63;3.70;;;21.00;58.30;;;;;;5053398;28;20051;-61
2021/12/14 09:48:05;;;;;;;7.60;4.95;;;21.00;58.30;;;;;;5053526;28;20048;-61
2021/12/14 09:50:32;;;;;;;8.15;4.88;;;21.00;58.30;;;;;;5052976;28;20037;-60
2021/12/14 09:52:58;;;;;;;8.93;5.00;;;21.00;58.20;;;;;;5053216;28;20052;-61
2021/12/14 09:55:26;;;;;;;6.93;4.88;;;21.00;58.20;;;;;;5053390;28;20435;-62
2021/12/14 09:57:58;;;;;;;7.50;4.53;;;21.00;58.40;;;;;;5051442;28;20436;-60
2021/12/14 10:00:28;;;;;;;6.63;4.35;;;21.00;58.50;;;;;;5053806;28;20087;-61
2021/12/14 10:02:55;;;;;;;7.38;4.80;;;21.10;58.70;;;;;;5053285;28;20048;-60
2021/12/14 10:05:40;;;;;;;5.93;4.35;;;21.10;58.80;;;;;;5052870;28;20064;-60
2021/12/14 10:08:15;;;;;;;8.05;4.43;;;21.10;58.80;;;;;;5053534;28;20128;-60
2021/12/14 10:10:42;;;;;;;7.43;4.50;;;21.10;58.80;;;;;;5052323;28;20051;-60
2021/12/14 10:13:08;;;;;;;6.40;4.30;;;21.10;58.90;;;;;;5045960;28;20524;-60
2021/12/14 10:15:42;;;;;;;6.50;4.40;;;21.10;59.00;;;;;;5040741;28;20304;-61
2021/12/14 10:18:18;;;;;;;7.97;5.20;;;21.10;59.00;;;;;;5041663;28;20070;-60
2021/12/14 10:20:56;;;;;;;6.75;4.53;;;21.20;58.90;;;;;;5038751;28;20047;-61
2021/12/14 10:23:22;;;;;;;10.65;5.10;;;21.20;59.00;;;;;;5013422;28;20048;-59
2021/12/14 10:25:48;;;;;;;7.32;4.90;;;21.10;58.90;;;;;;5012138;28;20050;-60
2021/12/14 10:28:13;;;;;;;5.22;4.18;;;21.20;59.00;;;;;;5013496;28;20141;-60
2021/12/14 10:30:43;;;;;;;8.77;4.63;;;21.20;59.00;;;;;;5013445;28;20101;-61
2021/12/14 10:33:10;;;;;;;6.18;4.30;;;21.20;59.00;;;;;;5012461;28;20049;-61
2021/12/14 10:35:45;;;;;;;7.75;4.68;;;21.20;59.00;;;;;;5013158;28;20070;-61
2021/12/14 10:38:22;;;;;;;6.43;4.53;;;21.20;58.90;;;;;;5013330;28;20042;-61
2021/12/14 10:43:38;;;;;;;7.35;4.47;;;21.20;58.90;;;;;;5013276;28;20490;-61
2021/12/14 10:46:08;;;;;;;7.30;4.05;;;21.20;58.90;;;;;;5013039;28;20088;-61
2021/12/14 10:48:37;;;;;;;7.38;4.88;;;21.20;58.90;;;;;;5011089;28;20548;-61
2021/12/14 10:51:05;;;;;;;9.38;5.00;;;21.20;58.90;;;;;;5012903;28;20101;-60
2021/12/14 10:53:30;;;;;;;6.82;4.68;;;21.20;58.90;;;;;;5012959;28;20052;-60
2021/12/14 10:56:00;;;;;;;6.05;4.60;;;21.20;58.90;;;;;;5010723;28;20046;-60
2021/12/14 10:58:27;;;;;;;5.53;4.25;;;21.20;58.80;;;;;;5013066;28;20050;-60
2021/12/14 11:00:56;;;;;;;5.60;4.45;;;21.20;58.80;;;;;;5010612;28;20449;-60
2021/12/14 11:03:24;;;;;;;6.57;5.35;;;21.20;58.70;;;;;;5011794;28;20054;-61
2021/12/14 11:05:57;;;;;;;10.10;4.88;;;21.20;58.60;;;;;;5012775;28;20068;-60
2021/12/14 11:08:41;;;;;;;8.50;4.80;;;21.20;58.70;;;;;;5011996;28;20482;-61
2021/12/14 11:11:28;;;;;;;6.78;4.53;;;21.20;58.80;;;;;;5011787;28;20098;-60
2021/12/14 11:14:00;;;;;;;6.60;4.57;;;21.20;59.00;;;;;;5023473;28;20494;-60
2021/12/14 11:18:08;;;;;;;5.90;4.28;;;21.20;59.00;;;;;;5041460;28;20136;-60
2021/12/14 11:19:14;;;;;;;5.65;4.53;;;21.20;59.10;;;;;;5022674;28;20057;-61
2021/12/14 11:21:40;;;;;;;7.40;4.68;;;21.20;59.10;;;;;;5037228;28;20037;-61
2021/12/14 11:24:05;;;;;;;7.32;5.18;;;21.20;59.20;;;;;;5040651;28;20037;-62
2021/12/14 11:26:35;;;;;;;7.95;5.38;;;21.20;59.20;;;;;;5040733;28;20033;-61
2021/12/14 11:29:04;;;;;;;5.82;4.60;;;21.30;59.30;;;;;;5041048;28;20053;-60
2021/12/14 11:31:50;;;;;;;8.20;4.97;;;21.30;59.30;;;;;;5043025;28;20049;-60
2021/12/14 11:34:26;;;;;;;6.20;4.47;;;21.30;59.40;;;;;;5037749;28;20144;-61
2021/12/14 11:36:55;;;;;;;7.60;4.60;;;21.30;59.30;;;;;;5039775;28;20120;-60
2021/12/14 11:39:25;;;;;;;6.82;4.65;;;21.30;59.30;;;;;;5042025;28;20528;-61
2021/12/14 11:42:03;;;;;;;7.30;4.15;;;21.30;59.30;;;;;;5042371;28;20531;-60
2021/12/14 11:44:45;;;;;;;7.32;4.43;;;21.30;59.40;;;;;;5042249;28;20049;-60
2021/12/14 11:50:14;;;;;;;6.15;4.45;;;21.30;59.40;;;;;;5051483;28;20056;-61
2021/12/14 11:53:00;;;;;;;5.82;4.50;;;21.30;59.20;;;;;;5051691;28;20454;-60
2021/12/14 11:55:45;;;;;;;6.07;4.50;;;21.30;59.10;;;;;;5052115;28;20049;-61
2021/12/14 11:58:16;;;;;;;5.55;4.28;;;21.30;59.00;;;;;;5051474;28;20126;-61
2021/12/14 12:01:16;;;;;;;7.05;4.35;;;21.30;59.00;;;;;;5050548;28;20477;-61
2021/12/14 12:03:49;;;;;;;6.82;4.47;;;21.20;58.80;;;;;;5048431;28;20128;-61
2021/12/14 12:06:44;;;;;;;6.40;4.40;;;21.30;58.90;;;;;;5051298;28;20041;-61
2021/12/14 12:09:33;;;;;;;7.30;5.13;;;21.20;58.90;;;;;;5051863;28;20049;-63
2021/12/14 12:12:05;;;;;;;6.28;4.80;;;21.20;58.80;;;;;;5050870;28;20041;-61
2021/12/14 12:15:04;;;;;;;6.80;5.00;;;21.20;58.70;;;;;;5052155;28;20071;-60
2021/12/14 12:17:40;;;;;;;7.65;4.50;;;21.30;58.70;;;;;;5051716;28;20045;-63
2021/12/14 12:20:06;;;;;;;6.10;4.57;;;21.30;58.70;;;;;;5050243;28;20041;-60
2021/12/14 12:22:35;;;;;;;6.97;4.53;;;21.30;58.70;;;;;;5055440;28;20059;-59
2021/12/14 12:25:00;;;;;;;7.38;4.70;;;21.30;58.80;;;;;;5054808;28;20148;-60
2021/12/14 12:27:31;;;;;;;7.10;4.40;;;21.30;58.80;;;;;;5054961;28;20512;-59
2021/12/14 12:30:12;;;;;;;11.52;4.80;;;21.30;58.80;;;;;;5055255;28;20052;-59
2021/12/14 12:32:38;;;;;;;9.50;4.18;;;21.30;58.90;;;;;;5049623;28;20476;-59
2021/12/14 12:35:21;;;;;;;8.23;4.00;;;21.30;58.90;;;;;;5042775;28;20045;-60
2021/12/14 12:37:47;;;;;;;8.23;4.35;;;21.30;59.00;;;;;;5034913;28;20046;-59
2021/12/14 12:40:15;;;;;;;8.65;4.25;;;21.30;59.00;;;;;;5034623;28;20095;-59
2021/12/14 12:42:42;;;;;;;7.30;4.53;;;21.30;59.10;;;;;;5034784;28;20447;-59
2021/12/14 12:45:31;;;;;;;7.88;4.80;;;21.30;59.10;;;;;;5033996;28;20041;-59
2021/12/14 12:47:56;;;;;;;7.70;3.97;;;21.30;59.10;;;;;;5034266;28;20090;-60
2021/12/14 12:50:24;;;;;;;5.53;3.83;;;21.30;59.20;;;;;;5034996;28;20116;-59
2021/12/14 12:52:50;;;;;;;6.07;4.15;;;21.30;59.10;;;;;;5034847;28;20052;-59
2021/12/14 12:55:28;;;;;;;7.03;4.00;;;21.30;59.20;;;;;;5034147;28;20038;-59
2021/12/14 12:58:10;;;;;;;8.57;4.45;;;21.20;59.20;;;;;;5033250;28;20494;-59
2021/12/14 13:00:48;;;;;;;7.55;4.32;;;21.20;59.10;;;;;;5034363;28;20041;-60
2021/12/14 13:03:19;;;;;;;7.03;4.30;;;21.30;59.20;;;;;;5034691;28;20041;-59
2021/12/14 13:05:55;;;;;;;6.10;4.25;;;21.20;59.20;;;;;;5034554;28;20120;-59
2021/12/14 13:08:34;;;;;;;8.52;4.55;;;21.30;59.30;;;;;;5033002;28;20611;-59
2021/12/14 13:11:21;;;;;;;8.55;4.13;;;21.30;59.30;;;;;;5034484;28;20045;-59
2021/12/14 13:13:49;;;;;;;5.90;4.20;;;21.30;59.20;;;;;;5034520;28;20087;-59
2021/12/14 13:16:25;;;;;;;5.55;4.30;;;21.30;59.30;;;;;;5033717;28;20401;-60
2021/12/14 13:18:51;;;;;;;7.70;4.45;;;21.20;59.30;;;;;;5034345;28;20053;-59
2021/12/14 13:21:19;;;;;;;8.18;4.25;;;21.30;59.30;;;;;;5034453;28;20046;-59
2021/12/14 13:23:52;;;;;;;5.25;3.78;;;21.30;59.30;;;;;;5034261;28;20045;-59
2021/12/14 13:26:39;;;;;;;5.47;3.90;;;21.30;59.30;;;;;;5034599;28;20061;-60
2021/12/14 13:29:10;;;;;;;7.00;4.57;;;21.20;59.20;;;;;;5033057;28;20041;-60
2021/12/14 13:31:38;;;;;;;8.52;4.00;;;21.20;59.10;;;;;;5034448;28;20085;-60
2021/12/14 13:34:07;;;;;;;6.40;4.03;;;21.20;59.00;;;;;;5033363;28;20049;-59